createdAt,value
2024-02-10T00:03:55.290Z,82
2024-02-10T00:09:02.629Z,80.5
2024-02-10T00:14:09.929Z,78.5
2024-02-10T00:19:17.427Z,80
2024-02-10T00:24:24.671Z,80
2024-02-10T00:29:33.046Z,80
2024-02-10T00:34:39.382Z,78.5
2024-02-10T00:39:46.739Z,79.5
2024-02-10T00:44:54.038Z,79.5
2024-02-10T00:50:01.630Z,79.5
2024-02-10T00:55:08.803Z,80.5
2024-02-10T01:00:16.154Z,79.5
2024-02-10T01:05:23.562Z,79.5
2024-02-10T01:10:30.872Z,79.5
2024-02-10T01:15:38.188Z,79
2024-02-10T01:25:52.959Z,77.5
2024-02-10T01:31:00.283Z,78
2024-02-10T01:36:07.652Z,76
2024-02-10T01:41:15.023Z,77
2024-02-10T01:46:22.485Z,77
2024-02-10T01:51:29.712Z,78
2024-02-10T01:56:37.066Z,78
2024-02-10T02:01:44.425Z,79
2024-02-10T02:06:51.762Z,78
2024-02-10T02:11:59.137Z,78
2024-02-10T02:17:06.486Z,77.5
2024-02-10T02:22:13.855Z,78
2024-02-10T02:27:21.168Z,77
2024-02-10T02:32:28.555Z,78.5
2024-02-10T02:37:35.903Z,77.5
2024-02-10T02:42:43.240Z,76
2024-02-10T02:47:50.687Z,78
2024-02-10T02:52:57.998Z,78.5
2024-02-10T02:58:05.316Z,78
2024-02-10T03:03:12.688Z,78.5
2024-02-10T03:08:20.021Z,78
2024-02-10T03:13:27.440Z,78
2024-02-10T03:18:34.826Z,76.5
2024-02-10T03:23:42.099Z,76.5
2024-02-10T03:28:49.517Z,77.5
2024-02-10T03:33:56.947Z,79
2024-02-10T03:39:04.183Z,80
2024-02-10T03:44:11.635Z,74.5
2024-02-10T03:49:18.943Z,77.5
2024-02-10T03:54:26.230Z,76
2024-02-10T03:59:33.612Z,75.5
2024-02-10T04:04:41.041Z,77
2024-02-10T04:09:48.296Z,77.5
2024-02-10T04:14:55.671Z,78
2024-02-10T04:20:03.134Z,78.5
2024-02-10T04:25:10.392Z,78
2024-02-10T04:30:17.782Z,77.5
2024-02-10T04:35:25.104Z,76.5
2024-02-10T04:40:32.476Z,77.5
2024-02-10T04:45:39.813Z,75.5
2024-02-10T04:50:47.169Z,77
2024-02-10T04:55:54.549Z,76.5
2024-02-10T05:03:13.663Z,78.5
2024-02-10T05:08:20.960Z,79
2024-02-10T05:13:28.319Z,78
2024-02-10T05:18:35.764Z,76
2024-02-10T05:23:43.004Z,78
2024-02-10T05:28:50.379Z,78
2024-02-10T05:33:57.793Z,76.5
2024-02-10T05:39:05.150Z,75.5
2024-02-10T05:44:12.430Z,76
2024-02-10T05:49:19.801Z,75.5
2024-02-10T05:54:27.158Z,76.5
2024-02-10T06:04:41.928Z,76
2024-02-10T06:09:49.251Z,76
2024-02-10T06:14:56.588Z,75
2024-02-10T06:20:04.038Z,75.5
2024-02-10T06:25:11.287Z,77.5
2024-02-10T06:30:18.699Z,77
2024-02-10T06:35:26.074Z,76
2024-02-10T06:40:33.389Z,76.5
2024-02-10T06:45:40.738Z,76.5
2024-02-10T06:50:48.088Z,78.5
2024-02-10T06:55:55.464Z,77
2024-02-10T07:01:02.809Z,76
2024-02-10T07:06:10.179Z,75
2024-02-10T07:11:17.523Z,74.5
2024-02-10T07:16:24.907Z,77.5
2024-02-10T07:21:32.228Z,76
2024-02-10T07:26:39.606Z,78
2024-02-10T07:31:46.968Z,76.5
2024-02-10T07:36:54.283Z,75.5
2024-02-10T07:42:01.642Z,74.5
2024-02-10T07:47:09.050Z,77
2024-02-10T07:52:16.367Z,75
2024-02-10T07:57:23.770Z,76.5
2024-02-10T08:02:31.063Z,75
2024-02-10T08:07:38.491Z,72.5
2024-02-10T08:12:45.808Z,74.5
2024-02-10T08:17:53.182Z,74.5
2024-02-10T08:23:00.702Z,72
2024-02-10T08:28:07.836Z,68.5
2024-02-10T08:33:15.327Z,67
2024-02-10T08:38:22.573Z,64.5
2024-02-10T08:43:29.906Z,64
2024-02-10T08:48:37.325Z,64.5
2024-02-10T08:53:44.634Z,67
2024-02-10T08:58:52.150Z,64.5
2024-02-10T09:03:59.358Z,65
2024-02-10T09:09:06.735Z,68
2024-02-10T09:14:14.110Z,67.5
2024-02-10T09:19:21.415Z,66
2024-02-10T09:24:28.809Z,66
2024-02-10T09:29:36.155Z,65
2024-02-10T09:34:43.522Z,64
2024-02-10T09:39:50.843Z,62.5
2024-02-10T09:44:58.201Z,65.5
2024-02-10T09:50:05.576Z,62
2024-02-10T09:55:12.896Z,64
2024-02-10T10:00:20.270Z,62.5
2024-02-10T10:05:27.747Z,63.5
2024-02-10T10:10:34.977Z,63
2024-02-10T10:15:42.344Z,64
2024-02-10T10:20:49.705Z,63.5
2024-02-10T10:25:57.109Z,63
2024-02-10T10:31:04.429Z,64
2024-02-10T10:36:11.811Z,63
2024-02-10T10:41:19.141Z,63
2024-02-10T10:46:26.470Z,60
2024-02-10T10:51:33.888Z,63
2024-02-10T10:56:41.185Z,60.5
2024-02-10T11:01:48.620Z,59.5
2024-02-10T11:06:55.889Z,60.5
2024-02-10T11:12:03.237Z,61.5
2024-02-10T11:17:10.770Z,61.5
2024-02-10T11:22:18.110Z,61
2024-02-10T11:27:25.454Z,61
2024-02-10T11:32:32.876Z,60
2024-02-10T11:37:40.221Z,61
2024-02-10T11:42:47.524Z,62
2024-02-10T11:47:55.001Z,60
2024-02-10T11:53:02.279Z,61
2024-02-10T11:58:09.625Z,61
2024-02-10T12:03:17.021Z,65
2024-02-10T12:08:24.288Z,63
2024-02-10T12:13:31.696Z,59.5
2024-02-10T12:18:39.042Z,62
2024-02-10T12:23:46.384Z,62
2024-02-10T12:28:53.758Z,58
2024-02-10T12:34:01.095Z,59
2024-02-10T12:39:08.438Z,60.5
2024-02-10T12:44:15.936Z,60.5
2024-02-10T12:49:23.230Z,60.5
2024-02-10T12:59:37.868Z,60
2024-02-10T13:04:45.308Z,61.5
2024-02-10T13:09:52.567Z,62.5
2024-02-10T13:15:00.046Z,62
2024-02-10T13:20:07.377Z,60
2024-02-10T13:25:14.819Z,61
2024-02-10T13:30:22.017Z,60.5
2024-02-10T13:35:29.525Z,59.5
2024-02-10T13:40:36.762Z,60.5
2024-02-10T13:45:44.060Z,62.5
2024-02-10T13:50:51.428Z,63
2024-02-10T13:55:58.826Z,62
2024-02-10T14:01:06.150Z,61.5
2024-02-10T14:06:13.577Z,61
2024-02-10T14:11:21.436Z,59.5
2024-02-10T14:16:28.281Z,57.5
2024-02-10T14:21:35.787Z,56.5
2024-02-10T14:26:43.289Z,58.5
2024-02-10T14:31:50.352Z,60
2024-02-10T14:36:57.685Z,59.5
2024-02-10T14:42:05.003Z,59.5
2024-02-10T14:47:12.463Z,62
2024-02-10T14:52:19.740Z,62
2024-02-10T14:57:27.094Z,64.5
2024-02-10T15:02:34.437Z,61.5
2024-02-10T15:07:41.826Z,60
2024-02-10T15:12:49.123Z,59
2024-02-10T15:17:56.550Z,65
2024-02-10T15:23:03.928Z,68
2024-02-10T15:28:11.218Z,66
2024-02-10T15:33:18.618Z,67
2024-02-10T15:38:25.905Z,66
2024-02-10T15:43:33.315Z,67
2024-02-10T15:48:40.695Z,68.5
2024-02-10T15:53:47.998Z,69
2024-02-10T15:58:55.667Z,67.5
2024-02-10T16:04:02.711Z,68.5
2024-02-10T16:09:10.081Z,68
2024-02-10T16:14:17.470Z,69
2024-02-10T16:19:24.933Z,69
2024-02-10T16:24:32.140Z,69.5
2024-02-10T16:29:39.507Z,69.5
2024-02-10T16:34:46.856Z,70.5
2024-02-10T16:39:54.193Z,67.5
2024-02-10T16:45:01.606Z,63
2024-02-10T16:50:08.928Z,62
2024-02-10T16:55:16.265Z,65
2024-02-10T17:00:23.655Z,64
2024-02-10T17:05:31.088Z,63
2024-02-10T17:10:38.438Z,62
2024-02-10T17:15:45.694Z,64
2024-02-10T17:20:53.061Z,62.5
2024-02-10T17:26:00.453Z,66.5
2024-02-10T17:31:07.785Z,66
2024-02-10T17:36:15.131Z,65.5
2024-02-10T17:41:22.679Z,67
2024-02-10T17:46:29.887Z,69.5
2024-02-10T17:51:37.200Z,68
2024-02-10T17:56:44.559Z,67.5
2024-02-10T18:01:51.891Z,68.5
2024-02-10T18:06:59.277Z,69.5
2024-02-10T18:12:06.666Z,69
2024-02-10T18:17:14.084Z,69.5
2024-02-10T18:22:21.353Z,72
2024-02-10T18:27:28.732Z,71
2024-02-10T18:32:36.181Z,70
2024-02-10T18:37:43.440Z,70.5
2024-02-10T18:42:50.748Z,71.5
2024-02-10T18:47:58.192Z,73
2024-02-10T18:53:05.528Z,72.5
2024-02-10T18:58:12.946Z,71
2024-02-10T19:03:20.180Z,70.5
2024-02-10T19:08:27.554Z,69.5
2024-02-10T19:13:34.953Z,71
2024-02-10T19:18:42.239Z,72
2024-02-10T19:23:49.883Z,72.5
2024-02-10T19:28:56.983Z,71
2024-02-10T19:34:04.415Z,71.5
2024-02-10T19:39:11.704Z,71.5
2024-02-10T19:44:19.069Z,71
2024-02-10T19:49:26.421Z,73
2024-02-10T19:54:33.793Z,72.5
2024-02-10T19:59:41.118Z,73
2024-02-10T20:04:48.531Z,71
2024-02-10T20:09:55.833Z,73.5
2024-02-10T20:15:03.246Z,72.5
2024-02-10T20:20:10.599Z,72.5
2024-02-10T20:25:17.909Z,71.5
2024-02-10T20:30:25.225Z,71.5
2024-02-10T20:35:32.623Z,71.5
2024-02-10T20:40:39.999Z,71
2024-02-10T20:45:47.332Z,69
2024-02-10T20:50:54.721Z,68.5
2024-02-10T20:56:02.062Z,69.5
2024-02-10T21:01:09.430Z,72
2024-02-10T21:06:16.834Z,73
2024-02-10T21:11:24.068Z,73
2024-02-10T21:16:31.490Z,73.5
2024-02-10T21:21:38.809Z,75
2024-02-10T21:26:46.200Z,74.5
2024-02-10T21:31:53.536Z,74
2024-02-10T21:37:00.838Z,74
2024-02-10T21:42:08.202Z,75
2024-02-10T21:47:15.586Z,77
2024-02-10T21:52:22.957Z,75
2024-02-10T21:57:30.296Z,74.5
2024-02-10T22:02:37.656Z,74.5
2024-02-10T22:09:56.723Z,75
2024-02-10T22:15:04.092Z,73.5
2024-02-10T22:20:11.529Z,74.5
2024-02-10T22:25:18.804Z,75.5
2024-02-10T22:30:26.191Z,77.5
2024-02-10T22:35:33.504Z,78
2024-02-10T22:40:40.890Z,79
2024-02-10T22:50:55.611Z,79.5
2024-02-10T22:56:02.990Z,79.5
2024-02-10T23:01:10.341Z,80.5
2024-02-10T23:06:17.727Z,79.5
2024-02-10T23:11:25.036Z,80
2024-02-10T23:16:32.407Z,81
2024-02-10T23:21:39.737Z,82
2024-02-10T23:26:47.056Z,82.5
2024-02-10T23:31:54.460Z,84
2024-02-10T23:37:01.806Z,84
2024-02-10T23:42:09.148Z,84
2024-02-10T23:47:16.516Z,83.5
2024-02-10T23:52:23.888Z,85.5
2024-02-10T23:57:31.240Z,87
